Aeroporto :
LOGIN :

Iscrizione | Disclaimer

   EN    FR    IT 

 










Sommario :    VFR   VFR Marginale   IFR   IFR Intensivo   IFR Molto Intensivo
Visibilità : 
Base nubi : 
>= 8 km
>= 3000ft
5 / 8 km
1000 / 3000 ft
1500m / 5 km
500 / 1000 ft
800 / 1500m
200 / 500 ft
< 800m
< 200 ft
Simboli :   Temporali  Nebbia  Neve Forte  Precipitazioni Forti  Vento > 20 kt
SIGMETs :   Varie  Temporali  Ghiacco  Turbolenza  Onda orograficha  Ceneri Vulcaniche






- Altitudine del aeroporto : 32 ft
- Codice IATA : LKZ


EGUL - RAF Lakenheath

ULTIMO METAR :
  • 212256Z AUTO 29005KT 9999 FEW017 BKN042 09/08 A3018 RMK AO2 SLP223 T00900079 $

METARs OBSOLETI :
  • 212211Z AUTO 30003KT 9999 FEW012 SCT027 09/08 A3017 RMK AO2 SLP220 $
  • 212126Z AUTO 31003KT 9999 SCT009 BKN130 10/08 A3016 RMK AO2 SLP217 $
  • 212111Z AUTO 33005KT 9999 BKN009 10/09 A3016 RMK AO2 SLP217 $
  • 212056Z AUTO 33005KT 9999 OVC010 10/09 A3016 RMK AO2 OVC V BKN SLP217 T00990088 52012 $

TAF AMD TAF EGUL
Valido dal 21 a 22 ore il 23 a 03 ore UTC


212210Z 2122/2303 36010KT 9999 BKN015 QNH3016INS
BECMG 2202/2203 34004KT 5000 BR FEW008 BKN015 QNH3017INS
BECMG 2209/2210 24012KT 9999 NSW BKN020 QNH3023INS
BECMG 2213/2214 22012KT 9999 SCT025 QNH3020INS TX12/2215Z TN06/2204Z LAST NO AMDS AFT 2122 NEXT 2205



MetMap, La meteo Aeronautica in un colpo d'occhio ! - Copyright ORBIFLY Dicembre 2007 - Disclaimer

ORBIFLY MET'MAP TEAM :

Programmazione e sviluppo : Alexandra Zaïnal
Concezione e sviluppo : Baudouin d'Aumeries
Co-Programmazione e sviluppo : Marc-Olivier Méhu
Supporto tecnico e logistico : Manuel Goepfert
Aiuto per la traduzione : Arnaldo La Scala

Contatto : metmap@orbifly.com




FONTI E CREDITI :

   NOAA